sensor_id;sensor_type;location;lat;lon;timestamp;P1;durP1;ratioP1;P2;durP2;ratioP2
27558;SDS011;15002;52.028;5.670;2023-02-23T00:00:34;81.13;;;39.08;;
27558;SDS011;15002;52.028;5.670;2023-02-23T00:03:00;82.47;;;40.10;;
27558;SDS011;15002;52.028;5.670;2023-02-23T00:05:27;82.05;;;39.38;;
27558;SDS011;15002;52.028;5.670;2023-02-23T00:07:54;83.72;;;38.13;;
27558;SDS011;15002;52.028;5.670;2023-02-23T00:10:20;84.25;;;39.17;;
27558;SDS011;15002;52.028;5.670;2023-02-23T00:12:54;80.78;;;37.63;;
27558;SDS011;15002;52.028;5.670;2023-02-23T00:15:22;81.20;;;38.35;;
27558;SDS011;15002;52.028;5.670;2023-02-23T00:17:51;79.25;;;37.03;;
27558;SDS011;15002;52.028;5.670;2023-02-23T00:20:17;83.85;;;36.70;;
27558;SDS011;15002;52.028;5.670;2023-02-23T00:22:49;83.40;;;37.72;;
27558;SDS011;15002;52.028;5.670;2023-02-23T00:25:17;83.05;;;37.60;;
27558;SDS011;15002;52.028;5.670;2023-02-23T00:27:43;76.72;;;36.90;;
27558;SDS011;15002;52.028;5.670;2023-02-23T00:30:13;77.95;;;37.03;;
27558;SDS011;15002;52.028;5.670;2023-02-23T00:32:44;78.93;;;37.47;;
27558;SDS011;15002;52.028;5.670;2023-02-23T00:35:10;76.82;;;35.97;;
27558;SDS011;15002;52.028;5.670;2023-02-23T00:37:45;75.88;;;36.47;;
27558;SDS011;15002;52.028;5.670;2023-02-23T00:40:13;80.50;;;37.17;;
27558;SDS011;15002;52.028;5.670;2023-02-23T00:42:40;79.85;;;38.33;;
27558;SDS011;15002;52.028;5.670;2023-02-23T00:45:07;80.28;;;38.38;;
27558;SDS011;15002;52.028;5.670;2023-02-23T00:47:36;75.22;;;36.67;;
27558;SDS011;15002;52.028;5.670;2023-02-23T00:50:03;82.72;;;39.33;;
27558;SDS011;15002;52.028;5.670;2023-02-23T00:52:29;78.03;;;38.17;;
27558;SDS011;15002;52.028;5.670;2023-02-23T00:54:55;75.93;;;36.13;;
27558;SDS011;15002;52.028;5.670;2023-02-23T00:57:21;77.07;;;39.00;;
27558;SDS011;15002;52.028;5.670;2023-02-23T00:59:47;73.82;;;35.42;;
27558;SDS011;15002;52.028;5.670;2023-02-23T01:02:13;73.50;;;37.28;;
27558;SDS011;15002;52.028;5.670;2023-02-23T01:04:39;74.68;;;36.47;;
27558;SDS011;15002;52.028;5.670;2023-02-23T01:07:05;75.38;;;37.05;;
27558;SDS011;15002;52.028;5.670;2023-02-23T01:09:31;74.30;;;36.35;;
27558;SDS011;15002;52.028;5.670;2023-02-23T01:11:57;75.28;;;36.75;;
27558;SDS011;15002;52.028;5.670;2023-02-23T01:14:26;79.18;;;37.17;;
27558;SDS011;15002;52.028;5.670;2023-02-23T01:16:53;75.95;;;36.88;;
27558;SDS011;15002;52.028;5.670;2023-02-23T01:19:18;75.50;;;36.35;;
27558;SDS011;15002;52.028;5.670;2023-02-23T01:21:45;73.82;;;35.65;;
27558;SDS011;15002;52.028;5.670;2023-02-23T01:24:11;75.47;;;35.63;;
27558;SDS011;15002;52.028;5.670;2023-02-23T01:26:38;75.90;;;35.35;;
27558;SDS011;15002;52.028;5.670;2023-02-23T01:29:07;74.68;;;36.75;;
27558;SDS011;15002;52.028;5.670;2023-02-23T01:31:38;78.35;;;36.67;;
27558;SDS011;15002;52.028;5.670;2023-02-23T01:34:06;75.13;;;36.83;;
27558;SDS011;15002;52.028;5.670;2023-02-23T01:36:34;72.47;;;35.55;;
27558;SDS011;15002;52.028;5.670;2023-02-23T01:39:03;69.18;;;36.05;;
27558;SDS011;15002;52.028;5.670;2023-02-23T01:41:31;74.30;;;36.63;;
27558;SDS011;15002;52.028;5.670;2023-02-23T01:44:06;75.97;;;35.30;;
27558;SDS011;15002;52.028;5.670;2023-02-23T01:46:52;72.57;;;35.78;;
27558;SDS011;15002;52.028;5.670;2023-02-23T01:49:25;72.95;;;35.65;;
27558;SDS011;15002;52.028;5.670;2023-02-23T01:51:58;77.80;;;35.72;;
27558;SDS011;15002;52.028;5.670;2023-02-23T01:54:32;74.40;;;36.38;;
27558;SDS011;15002;52.028;5.670;2023-02-23T01:57:02;72.75;;;35.97;;
27558;SDS011;15002;52.028;5.670;2023-02-23T02:02:02;73.38;;;35.78;;
27558;SDS011;15002;52.028;5.670;2023-02-23T02:04:32;73.75;;;35.95;;
27558;SDS011;15002;52.028;5.670;2023-02-23T02:07:08;69.20;;;34.20;;
27558;SDS011;15002;52.028;5.670;2023-02-23T02:09:40;73.82;;;36.15;;
27558;SDS011;15002;52.028;5.670;2023-02-23T02:12:27;74.68;;;36.25;;
27558;SDS011;15002;52.028;5.670;2023-02-23T02:14:53;71.32;;;34.67;;
27558;SDS011;15002;52.028;5.670;2023-02-23T02:20:32;74.53;;;36.20;;
27558;SDS011;15002;52.028;5.670;2023-02-23T02:32:44;74.45;;;34.65;;
27558;SDS011;15002;52.028;5.670;2023-02-23T02:35:27;73.88;;;35.60;;
27558;SDS011;15002;52.028;5.670;2023-02-23T02:38:20;73.60;;;35.47;;
27558;SDS011;15002;52.028;5.670;2023-02-23T02:40:52;72.63;;;34.63;;
27558;SDS011;15002;52.028;5.670;2023-02-23T02:43:24;69.50;;;34.53;;
27558;SDS011;15002;52.028;5.670;2023-02-23T02:46:27;73.65;;;34.55;;
27558;SDS011;15002;52.028;5.670;2023-02-23T02:51:27;78.10;;;35.55;;
27558;SDS011;15002;52.028;5.670;2023-02-23T02:54:22;73.97;;;35.15;;
27558;SDS011;15002;52.028;5.670;2023-02-23T02:57:02;80.10;;;34.22;;
27558;SDS011;15002;52.028;5.670;2023-02-23T02:59:29;72.10;;;35.15;;
27558;SDS011;15002;52.028;5.670;2023-02-23T03:02:18;70.57;;;34.33;;
27558;SDS011;15002;52.028;5.670;2023-02-23T03:05:12;75.20;;;36.17;;
27558;SDS011;15002;52.028;5.670;2023-02-23T03:11:21;80.53;;;35.17;;
27558;SDS011;15002;52.028;5.670;2023-02-23T03:14:32;77.35;;;35.85;;
27558;SDS011;15002;52.028;5.670;2023-02-23T03:23:26;73.72;;;35.38;;
27558;SDS011;15002;52.028;5.670;2023-02-23T03:36:07;72.22;;;34.45;;
27558;SDS011;15002;52.028;5.670;2023-02-23T03:39:00;75.50;;;35.67;;
27558;SDS011;15002;52.028;5.670;2023-02-23T03:41:53;77.60;;;34.40;;
27558;SDS011;15002;52.028;5.670;2023-02-23T03:44:41;75.72;;;36.75;;
27558;SDS011;15002;52.028;5.670;2023-02-23T03:47:29;74.15;;;36.22;;
27558;SDS011;15002;52.028;5.670;2023-02-23T03:50:40;79.60;;;37.13;;
27558;SDS011;15002;52.028;5.670;2023-02-23T03:53:30;74.25;;;34.53;;
27558;SDS011;15002;52.028;5.670;2023-02-23T03:56:21;78.97;;;35.97;;
27558;SDS011;15002;52.028;5.670;2023-02-23T03:59:09;78.65;;;37.00;;
27558;SDS011;15002;52.028;5.670;2023-02-23T04:01:56;81.57;;;36.17;;
27558;SDS011;15002;52.028;5.670;2023-02-23T04:04:41;77.55;;;35.33;;
27558;SDS011;15002;52.028;5.670;2023-02-23T04:07:27;78.78;;;35.65;;
27558;SDS011;15002;52.028;5.670;2023-02-23T04:10:12;76.07;;;36.05;;
27558;SDS011;15002;52.028;5.670;2023-02-23T04:13:01;76.82;;;35.50;;
27558;SDS011;15002;52.028;5.670;2023-02-23T04:18:16;80.22;;;37.42;;
27558;SDS011;15002;52.028;5.670;2023-02-23T04:23:11;78.47;;;36.05;;
27558;SDS011;15002;52.028;5.670;2023-02-23T04:25:37;80.75;;;35.65;;
27558;SDS011;15002;52.028;5.670;2023-02-23T04:28:03;78.88;;;36.50;;
27558;SDS011;15002;52.028;5.670;2023-02-23T04:30:29;76.05;;;35.88;;
27558;SDS011;15002;52.028;5.670;2023-02-23T04:32:55;70.80;;;34.30;;
27558;SDS011;15002;52.028;5.670;2023-02-23T04:35:21;75.78;;;35.20;;
27558;SDS011;15002;52.028;5.670;2023-02-23T04:37:46;77.43;;;35.38;;
27558;SDS011;15002;52.028;5.670;2023-02-23T04:40:12;75.93;;;37.75;;
27558;SDS011;15002;52.028;5.670;2023-02-23T04:42:38;77.93;;;34.20;;
27558;SDS011;15002;52.028;5.670;2023-02-23T04:45:05;86.97;;;37.60;;
27558;SDS011;15002;52.028;5.670;2023-02-23T04:47:31;77.03;;;35.55;;
27558;SDS011;15002;52.028;5.670;2023-02-23T04:49:57;75.65;;;34.88;;
27558;SDS011;15002;52.028;5.670;2023-02-23T04:52:22;82.82;;;37.60;;
27558;SDS011;15002;52.028;5.670;2023-02-23T04:54:48;77.03;;;35.78;;
27558;SDS011;15002;52.028;5.670;2023-02-23T04:57:14;76.85;;;34.33;;
27558;SDS011;15002;52.028;5.670;2023-02-23T04:59:39;79.35;;;35.88;;
27558;SDS011;15002;52.028;5.670;2023-02-23T05:02:05;76.10;;;35.67;;
27558;SDS011;15002;52.028;5.670;2023-02-23T05:04:31;75.63;;;35.58;;
27558;SDS011;15002;52.028;5.670;2023-02-23T05:06:59;76.15;;;35.17;;
27558;SDS011;15002;52.028;5.670;2023-02-23T05:09:25;84.00;;;36.47;;
27558;SDS011;15002;52.028;5.670;2023-02-23T05:11:51;74.55;;;35.05;;
27558;SDS011;15002;52.028;5.670;2023-02-23T05:14:17;77.80;;;35.22;;
27558;SDS011;15002;52.028;5.670;2023-02-23T05:16:42;75.47;;;37.35;;
27558;SDS011;15002;52.028;5.670;2023-02-23T05:19:08;77.38;;;35.40;;
27558;SDS011;15002;52.028;5.670;2023-02-23T05:21:34;75.20;;;34.63;;
27558;SDS011;15002;52.028;5.670;2023-02-23T05:24:00;79.65;;;35.70;;
27558;SDS011;15002;52.028;5.670;2023-02-23T05:26:26;83.90;;;37.17;;
27558;SDS011;15002;52.028;5.670;2023-02-23T05:28:51;78.45;;;36.22;;
27558;SDS011;15002;52.028;5.670;2023-02-23T05:31:18;77.25;;;36.30;;
27558;SDS011;15002;52.028;5.670;2023-02-23T05:33:44;76.22;;;35.83;;
27558;SDS011;15002;52.028;5.670;2023-02-23T05:36:13;72.53;;;34.80;;
27558;SDS011;15002;52.028;5.670;2023-02-23T05:38:41;76.63;;;35.90;;
27558;SDS011;15002;52.028;5.670;2023-02-23T05:41:08;77.85;;;35.60;;
27558;SDS011;15002;52.028;5.670;2023-02-23T05:43:35;80.40;;;36.40;;
27558;SDS011;15002;52.028;5.670;2023-02-23T05:46:08;75.18;;;34.38;;
27558;SDS011;15002;52.028;5.670;2023-02-23T05:48:35;72.38;;;34.25;;
27558;SDS011;15002;52.028;5.670;2023-02-23T05:51:05;76.47;;;35.58;;
27558;SDS011;15002;52.028;5.670;2023-02-23T05:53:33;76.13;;;34.53;;
27558;SDS011;15002;52.028;5.670;2023-02-23T05:56:00;70.93;;;33.30;;
27558;SDS011;15002;52.028;5.670;2023-02-23T05:58:27;78.00;;;34.60;;
27558;SDS011;15002;52.028;5.670;2023-02-23T06:00:53;79.75;;;36.83;;
27558;SDS011;15002;52.028;5.670;2023-02-23T06:03:19;76.97;;;35.58;;
27558;SDS011;15002;52.028;5.670;2023-02-23T06:05:53;75.68;;;33.90;;
27558;SDS011;15002;52.028;5.670;2023-02-23T06:08:20;76.60;;;35.08;;
27558;SDS011;15002;52.028;5.670;2023-02-23T06:10:46;77.88;;;35.40;;
27558;SDS011;15002;52.028;5.670;2023-02-23T06:13:12;78.43;;;35.08;;
27558;SDS011;15002;52.028;5.670;2023-02-23T06:15:38;76.38;;;34.95;;
27558;SDS011;15002;52.028;5.670;2023-02-23T06:18:04;75.07;;;34.65;;
27558;SDS011;15002;52.028;5.670;2023-02-23T06:20:31;72.93;;;33.38;;
27558;SDS011;15002;52.028;5.670;2023-02-23T06:22:57;77.97;;;36.50;;
27558;SDS011;15002;52.028;5.670;2023-02-23T06:25:23;77.80;;;35.33;;
27558;SDS011;15002;52.028;5.670;2023-02-23T06:27:48;71.35;;;33.47;;
27558;SDS011;15002;52.028;5.670;2023-02-23T06:30:14;71.65;;;34.08;;
27558;SDS011;15002;52.028;5.670;2023-02-23T06:32:40;77.97;;;35.42;;
27558;SDS011;15002;52.028;5.670;2023-02-23T06:35:06;74.05;;;34.30;;
27558;SDS011;15002;52.028;5.670;2023-02-23T06:37:33;77.28;;;34.05;;
27558;SDS011;15002;52.028;5.670;2023-02-23T06:39:59;77.43;;;34.55;;
27558;SDS011;15002;52.028;5.670;2023-02-23T06:42:25;77.75;;;33.42;;
27558;SDS011;15002;52.028;5.670;2023-02-23T06:44:50;72.78;;;31.77;;
27558;SDS011;15002;52.028;5.670;2023-02-23T06:47:16;76.35;;;34.80;;
27558;SDS011;15002;52.028;5.670;2023-02-23T06:49:42;74.70;;;34.10;;
27558;SDS011;15002;52.028;5.670;2023-02-23T06:52:08;77.72;;;32.60;;
27558;SDS011;15002;52.028;5.670;2023-02-23T06:54:34;78.80;;;35.25;;
27558;SDS011;15002;52.028;5.670;2023-02-23T06:57:01;81.05;;;35.97;;
27558;SDS011;15002;52.028;5.670;2023-02-23T06:59:27;72.72;;;33.38;;
27558;SDS011;15002;52.028;5.670;2023-02-23T07:01:54;72.72;;;33.97;;
27558;SDS011;15002;52.028;5.670;2023-02-23T07:04:20;77.45;;;34.50;;
27558;SDS011;15002;52.028;5.670;2023-02-23T07:06:45;90.45;;;37.97;;
27558;SDS011;15002;52.028;5.670;2023-02-23T07:09:11;79.88;;;37.83;;
27558;SDS011;15002;52.028;5.670;2023-02-23T07:11:39;82.68;;;37.75;;
27558;SDS011;15002;52.028;5.670;2023-02-23T07:14:05;70.35;;;33.65;;
27558;SDS011;15002;52.028;5.670;2023-02-23T07:16:34;75.78;;;35.13;;
27558;SDS011;15002;52.028;5.670;2023-02-23T07:19:00;73.20;;;32.83;;
27558;SDS011;15002;52.028;5.670;2023-02-23T07:21:27;75.93;;;34.65;;
27558;SDS011;15002;52.028;5.670;2023-02-23T07:23:53;72.55;;;34.20;;
27558;SDS011;15002;52.028;5.670;2023-02-23T07:26:19;72.07;;;31.95;;
27558;SDS011;15002;52.028;5.670;2023-02-23T07:28:45;75.47;;;32.30;;
27558;SDS011;15002;52.028;5.670;2023-02-23T07:31:10;74.75;;;33.60;;
27558;SDS011;15002;52.028;5.670;2023-02-23T07:33:36;79.28;;;34.03;;
27558;SDS011;15002;52.028;5.670;2023-02-23T07:36:02;78.20;;;35.00;;
27558;SDS011;15002;52.028;5.670;2023-02-23T07:38:28;73.47;;;34.20;;
27558;SDS011;15002;52.028;5.670;2023-02-23T07:40:53;72.47;;;34.05;;
27558;SDS011;15002;52.028;5.670;2023-02-23T07:43:19;75.72;;;33.00;;
27558;SDS011;15002;52.028;5.670;2023-02-23T07:45:46;75.45;;;33.55;;
27558;SDS011;15002;52.028;5.670;2023-02-23T07:48:13;78.03;;;34.10;;
27558;SDS011;15002;52.028;5.670;2023-02-23T07:50:39;74.35;;;33.33;;
27558;SDS011;15002;52.028;5.670;2023-02-23T07:53:05;75.82;;;32.97;;
27558;SDS011;15002;52.028;5.670;2023-02-23T07:55:31;71.03;;;32.53;;
27558;SDS011;15002;52.028;5.670;2023-02-23T07:57:56;74.82;;;33.55;;
27558;SDS011;15002;52.028;5.670;2023-02-23T08:00:22;75.18;;;34.72;;
27558;SDS011;15002;52.028;5.670;2023-02-23T08:02:49;69.72;;;32.10;;
27558;SDS011;15002;52.028;5.670;2023-02-23T08:05:17;71.90;;;33.13;;
27558;SDS011;15002;52.028;5.670;2023-02-23T08:07:43;75.00;;;33.75;;
27558;SDS011;15002;52.028;5.670;2023-02-23T08:10:09;79.22;;;34.15;;
27558;SDS011;15002;52.028;5.670;2023-02-23T08:12:35;69.75;;;32.50;;
27558;SDS011;15002;52.028;5.670;2023-02-23T08:15:02;72.20;;;31.73;;
27558;SDS011;15002;52.028;5.670;2023-02-23T08:17:32;70.95;;;32.10;;
27558;SDS011;15002;52.028;5.670;2023-02-23T08:19:59;71.82;;;32.75;;
27558;SDS011;15002;52.028;5.670;2023-02-23T08:22:25;72.88;;;34.22;;
27558;SDS011;15002;52.028;5.670;2023-02-23T08:24:51;73.15;;;33.40;;
27558;SDS011;15002;52.028;5.670;2023-02-23T08:27:17;71.10;;;33.55;;
27558;SDS011;15002;52.028;5.670;2023-02-23T08:29:43;74.45;;;32.78;;
27558;SDS011;15002;52.028;5.670;2023-02-23T08:32:09;70.85;;;30.50;;
27558;SDS011;15002;52.028;5.670;2023-02-23T08:34:38;77.78;;;35.75;;
27558;SDS011;15002;52.028;5.670;2023-02-23T08:37:04;76.82;;;33.05;;
27558;SDS011;15002;52.028;5.670;2023-02-23T08:39:30;72.28;;;32.88;;
27558;SDS011;15002;52.028;5.670;2023-02-23T08:41:56;75.65;;;33.25;;
27558;SDS011;15002;52.028;5.670;2023-02-23T08:44:21;70.22;;;32.47;;
27558;SDS011;15002;52.028;5.670;2023-02-23T08:46:47;74.38;;;32.40;;
27558;SDS011;15002;52.028;5.670;2023-02-23T08:49:13;73.05;;;32.58;;
27558;SDS011;15002;52.028;5.670;2023-02-23T08:51:38;71.22;;;32.42;;
27558;SDS011;15002;52.028;5.670;2023-02-23T08:54:05;80.57;;;32.92;;
27558;SDS011;15002;52.028;5.670;2023-02-23T08:56:36;68.75;;;30.95;;
27558;SDS011;15002;52.028;5.670;2023-02-23T08:59:02;70.15;;;30.48;;
27558;SDS011;15002;52.028;5.670;2023-02-23T09:01:28;69.38;;;30.83;;
27558;SDS011;15002;52.028;5.670;2023-02-23T09:03:54;70.28;;;31.67;;
27558;SDS011;15002;52.028;5.670;2023-02-23T09:06:20;70.78;;;30.58;;
27558;SDS011;15002;52.028;5.670;2023-02-23T09:08:47;73.32;;;33.15;;
27558;SDS011;15002;52.028;5.670;2023-02-23T09:11:13;69.82;;;30.52;;
27558;SDS011;15002;52.028;5.670;2023-02-23T09:13:39;69.40;;;31.20;;
27558;SDS011;15002;52.028;5.670;2023-02-23T09:16:05;72.60;;;31.80;;
27558;SDS011;15002;52.028;5.670;2023-02-23T09:18:32;65.60;;;30.48;;
27558;SDS011;15002;52.028;5.670;2023-02-23T09:20:58;69.40;;;30.88;;
27558;SDS011;15002;52.028;5.670;2023-02-23T09:23:31;70.60;;;31.13;;
27558;SDS011;15002;52.028;5.670;2023-02-23T09:26:01;67.32;;;29.27;;
27558;SDS011;15002;52.028;5.670;2023-02-23T09:28:30;67.13;;;29.17;;
27558;SDS011;15002;52.028;5.670;2023-02-23T09:30:58;75.00;;;31.48;;
27558;SDS011;15002;52.028;5.670;2023-02-23T09:33:30;67.63;;;29.67;;
27558;SDS011;15002;52.028;5.670;2023-02-23T09:35:56;66.53;;;29.23;;
27558;SDS011;15002;52.028;5.670;2023-02-23T09:38:21;69.05;;;29.20;;
27558;SDS011;15002;52.028;5.670;2023-02-23T09:40:49;63.35;;;29.02;;
27558;SDS011;15002;52.028;5.670;2023-02-23T09:46:02;62.42;;;29.27;;
27558;SDS011;15002;52.028;5.670;2023-02-23T09:48:52;63.08;;;27.05;;
27558;SDS011;15002;52.028;5.670;2023-02-23T09:51:21;67.40;;;29.30;;
27558;SDS011;15002;52.028;5.670;2023-02-23T09:53:58;61.78;;;27.13;;
27558;SDS011;15002;52.028;5.670;2023-02-23T09:56:31;59.85;;;26.95;;
27558;SDS011;15002;52.028;5.670;2023-02-23T09:59:01;58.67;;;26.00;;
27558;SDS011;15002;52.028;5.670;2023-02-23T10:04:35;57.05;;;25.85;;
27558;SDS011;15002;52.028;5.670;2023-02-23T10:18:36;60.20;;;26.17;;
27558;SDS011;15002;52.028;5.670;2023-02-23T10:21:34;72.85;;;28.60;;
27558;SDS011;15002;52.028;5.670;2023-02-23T10:24:04;58.85;;;26.00;;
27558;SDS011;15002;52.028;5.670;2023-02-23T10:26:41;63.55;;;26.30;;
27558;SDS011;15002;52.028;5.670;2023-02-23T10:29:19;61.08;;;25.98;;
27558;SDS011;15002;52.028;5.670;2023-02-23T10:32:00;63.55;;;26.75;;
27558;SDS011;15002;52.028;5.670;2023-02-23T10:34:31;56.95;;;25.08;;
27558;SDS011;15002;52.028;5.670;2023-02-23T10:36:59;61.00;;;25.83;;
27558;SDS011;15002;52.028;5.670;2023-02-23T10:39:29;58.28;;;23.90;;
27558;SDS011;15002;52.028;5.670;2023-02-23T10:41:57;59.70;;;23.80;;
27558;SDS011;15002;52.028;5.670;2023-02-23T10:44:26;61.85;;;26.27;;
27558;SDS011;15002;52.028;5.670;2023-02-23T10:47:00;68.32;;;28.33;;
27558;SDS011;15002;52.028;5.670;2023-02-23T10:52:17;74.00;;;28.00;;
27558;SDS011;15002;52.028;5.670;2023-02-23T10:54:51;63.03;;;25.63;;
27558;SDS011;15002;52.028;5.670;2023-02-23T11:02:51;52.33;;;22.17;;
27558;SDS011;15002;52.028;5.670;2023-02-23T11:13:47;45.40;;;18.88;;
27558;SDS011;15002;52.028;5.670;2023-02-23T11:16:15;41.53;;;17.67;;
27558;SDS011;15002;52.028;5.670;2023-02-23T11:18:52;42.03;;;18.17;;
27558;SDS011;15002;52.028;5.670;2023-02-23T11:21:23;41.95;;;18.92;;
27558;SDS011;15002;52.028;5.670;2023-02-23T11:23:54;44.70;;;19.65;;
27558;SDS011;15002;52.028;5.670;2023-02-23T11:26:30;42.53;;;18.65;;
27558;SDS011;15002;52.028;5.670;2023-02-23T11:29:03;43.75;;;19.27;;
27558;SDS011;15002;52.028;5.670;2023-02-23T11:31:39;44.92;;;18.48;;
27558;SDS011;15002;52.028;5.670;2023-02-23T11:34:16;43.33;;;18.70;;
27558;SDS011;15002;52.028;5.670;2023-02-23T11:36:47;44.33;;;18.55;;
27558;SDS011;15002;52.028;5.670;2023-02-23T11:39:26;42.37;;;18.83;;
27558;SDS011;15002;52.028;5.670;2023-02-23T11:45:06;43.70;;;17.92;;
27558;SDS011;15002;52.028;5.670;2023-02-23T11:47:31;41.08;;;18.10;;
27558;SDS011;15002;52.028;5.670;2023-02-23T11:49:59;39.90;;;18.40;;
27558;SDS011;15002;52.028;5.670;2023-02-23T11:52:26;37.67;;;17.38;;
27558;SDS011;15002;52.028;5.670;2023-02-23T11:54:56;39.70;;;18.38;;
27558;SDS011;15002;52.028;5.670;2023-02-23T11:57:28;38.63;;;16.83;;
27558;SDS011;15002;52.028;5.670;2023-02-23T11:59:56;41.50;;;18.02;;
27558;SDS011;15002;52.028;5.670;2023-02-23T12:02:24;41.08;;;16.83;;
27558;SDS011;15002;52.028;5.670;2023-02-23T12:04:52;31.27;;;14.32;;
27558;SDS011;15002;52.028;5.670;2023-02-23T12:07:45;37.75;;;15.88;;
27558;SDS011;15002;52.028;5.670;2023-02-23T12:12:59;40.30;;;16.95;;
27558;SDS011;15002;52.028;5.670;2023-02-23T12:20:47;37.85;;;16.63;;
27558;SDS011;15002;52.028;5.670;2023-02-23T12:25:51;35.22;;;15.13;;
27558;SDS011;15002;52.028;5.670;2023-02-23T12:31:10;29.85;;;12.88;;
27558;SDS011;15002;52.028;5.670;2023-02-23T12:34:01;26.73;;;11.68;;
27558;SDS011;15002;52.028;5.670;2023-02-23T12:36:38;25.38;;;11.82;;
27558;SDS011;15002;52.028;5.670;2023-02-23T12:39:15;27.67;;;10.75;;
27558;SDS011;15002;52.028;5.670;2023-02-23T12:42:00;23.98;;;11.25;;
27558;SDS011;15002;52.028;5.670;2023-02-23T12:49:55;24.60;;;10.50;;
27558;SDS011;15002;52.028;5.670;2023-02-23T12:52:31;20.77;;;10.65;;
27558;SDS011;15002;52.028;5.670;2023-02-23T12:55:02;23.92;;;11.15;;
27558;SDS011;15002;52.028;5.670;2023-02-23T13:05:47;23.67;;;10.25;;
27558;SDS011;15002;52.028;5.670;2023-02-23T13:08:34;23.75;;;10.52;;
27558;SDS011;15002;52.028;5.670;2023-02-23T13:14:00;20.25;;;9.35;;
27558;SDS011;15002;52.028;5.670;2023-02-23T13:16:34;26.75;;;11.20;;
27558;SDS011;15002;52.028;5.670;2023-02-23T13:24:24;24.23;;;10.52;;
27558;SDS011;15002;52.028;5.670;2023-02-23T13:27:00;23.63;;;11.48;;
27558;SDS011;15002;52.028;5.670;2023-02-23T13:31:58;23.87;;;9.70;;
27558;SDS011;15002;52.028;5.670;2023-02-23T13:34:25;21.60;;;10.05;;
27558;SDS011;15002;52.028;5.670;2023-02-23T13:36:54;20.08;;;8.82;;
27558;SDS011;15002;52.028;5.670;2023-02-23T13:39:27;17.15;;;8.05;;
27558;SDS011;15002;52.028;5.670;2023-02-23T13:42:08;21.05;;;8.43;;
27558;SDS011;15002;52.028;5.670;2023-02-23T13:44:40;19.33;;;8.98;;
27558;SDS011;15002;52.028;5.670;2023-02-23T13:50:15;16.40;;;7.97;;
27558;SDS011;15002;52.028;5.670;2023-02-23T13:52:43;17.20;;;8.20;;
27558;SDS011;15002;52.028;5.670;2023-02-23T13:57:55;17.85;;;8.43;;
27558;SDS011;15002;52.028;5.670;2023-02-23T14:00:35;15.57;;;8.05;;
27558;SDS011;15002;52.028;5.670;2023-02-23T14:03:03;18.58;;;9.07;;
27558;SDS011;15002;52.028;5.670;2023-02-23T14:05:30;18.73;;;8.77;;
27558;SDS011;15002;52.028;5.670;2023-02-23T14:08:05;18.02;;;8.95;;
27558;SDS011;15002;52.028;5.670;2023-02-23T14:10:36;18.70;;;8.77;;
27558;SDS011;15002;52.028;5.670;2023-02-23T14:15:43;18.05;;;9.25;;
27558;SDS011;15002;52.028;5.670;2023-02-23T14:23:26;21.88;;;10.50;;
27558;SDS011;15002;52.028;5.670;2023-02-23T14:34:58;23.05;;;10.27;;
27558;SDS011;15002;52.028;5.670;2023-02-23T14:40:14;25.35;;;11.07;;
27558;SDS011;15002;52.028;5.670;2023-02-23T14:42:51;26.55;;;11.40;;
27558;SDS011;15002;52.028;5.670;2023-02-23T14:45:24;22.80;;;10.90;;
27558;SDS011;15002;52.028;5.670;2023-02-23T14:47:56;21.48;;;9.90;;
27558;SDS011;15002;52.028;5.670;2023-02-23T14:50:27;20.02;;;9.52;;
27558;SDS011;15002;52.028;5.670;2023-02-23T14:52:55;19.92;;;8.95;;
27558;SDS011;15002;52.028;5.670;2023-02-23T14:55:26;21.88;;;9.40;;
27558;SDS011;15002;52.028;5.670;2023-02-23T14:57:53;19.70;;;9.13;;
27558;SDS011;15002;52.028;5.670;2023-02-23T15:00:24;19.70;;;9.63;;
27558;SDS011;15002;52.028;5.670;2023-02-23T15:05:45;19.42;;;8.85;;
27558;SDS011;15002;52.028;5.670;2023-02-23T15:08:17;19.30;;;9.55;;
27558;SDS011;15002;52.028;5.670;2023-02-23T15:10:50;20.20;;;9.00;;
27558;SDS011;15002;52.028;5.670;2023-02-23T15:15:49;21.10;;;9.50;;
27558;SDS011;15002;52.028;5.670;2023-02-23T15:18:23;19.50;;;9.30;;
27558;SDS011;15002;52.028;5.670;2023-02-23T15:20:58;20.25;;;8.95;;
27558;SDS011;15002;52.028;5.670;2023-02-23T15:23:24;19.92;;;9.25;;
27558;SDS011;15002;52.028;5.670;2023-02-23T15:25:50;20.73;;;9.45;;
27558;SDS011;15002;52.028;5.670;2023-02-23T15:30:50;22.73;;;10.10;;
27558;SDS011;15002;52.028;5.670;2023-02-23T15:33:18;23.17;;;9.88;;
27558;SDS011;15002;52.028;5.670;2023-02-23T15:38:49;24.98;;;10.70;;
27558;SDS011;15002;52.028;5.670;2023-02-23T15:44:04;24.17;;;10.73;;
27558;SDS011;15002;52.028;5.670;2023-02-23T15:46:47;28.83;;;11.40;;
27558;SDS011;15002;52.028;5.670;2023-02-23T15:49:19;27.98;;;11.30;;
27558;SDS011;15002;52.028;5.670;2023-02-23T15:51:49;27.98;;;11.98;;
27558;SDS011;15002;52.028;5.670;2023-02-23T15:54:26;31.27;;;13.30;;
27558;SDS011;15002;52.028;5.670;2023-02-23T15:57:20;36.78;;;14.07;;
27558;SDS011;15002;52.028;5.670;2023-02-23T15:59:51;35.95;;;15.13;;
27558;SDS011;15002;52.028;5.670;2023-02-23T16:04:49;41.97;;;14.85;;
27558;SDS011;15002;52.028;5.670;2023-02-23T16:09:54;44.78;;;16.23;;
27558;SDS011;15002;52.028;5.670;2023-02-23T16:12:40;47.30;;;17.75;;
27558;SDS011;15002;52.028;5.670;2023-02-23T16:17:51;44.95;;;17.95;;
27558;SDS011;15002;52.028;5.670;2023-02-23T16:20:32;57.53;;;19.63;;
27558;SDS011;15002;52.028;5.670;2023-02-23T16:22:59;49.33;;;19.17;;
27558;SDS011;15002;52.028;5.670;2023-02-23T16:25:27;57.88;;;20.10;;
27558;SDS011;15002;52.028;5.670;2023-02-23T16:27:55;58.13;;;20.90;;
27558;SDS011;15002;52.028;5.670;2023-02-23T16:33:08;47.53;;;16.90;;
27558;SDS011;15002;52.028;5.670;2023-02-23T16:35:43;35.33;;;14.07;;
27558;SDS011;15002;52.028;5.670;2023-02-23T16:38:12;26.38;;;8.68;;
27558;SDS011;15002;52.028;5.670;2023-02-23T16:40:58;20.17;;;8.10;;
27558;SDS011;15002;52.028;5.670;2023-02-23T16:43:24;14.30;;;5.35;;
27558;SDS011;15002;52.028;5.670;2023-02-23T16:45:49;12.25;;;4.78;;
27558;SDS011;15002;52.028;5.670;2023-02-23T16:48:16;10.75;;;4.60;;
27558;SDS011;15002;52.028;5.670;2023-02-23T16:50:43;15.32;;;4.13;;
27558;SDS011;15002;52.028;5.670;2023-02-23T16:53:10;9.60;;;3.75;;
27558;SDS011;15002;52.028;5.670;2023-02-23T16:55:36;12.07;;;4.15;;
27558;SDS011;15002;52.028;5.670;2023-02-23T16:58:06;14.13;;;5.07;;
27558;SDS011;15002;52.028;5.670;2023-02-23T17:00:35;23.98;;;4.90;;
27558;SDS011;15002;52.028;5.670;2023-02-23T17:03:01;19.25;;;4.65;;
27558;SDS011;15002;52.028;5.670;2023-02-23T17:05:29;17.88;;;5.22;;
27558;SDS011;15002;52.028;5.670;2023-02-23T17:07:55;18.52;;;4.55;;
27558;SDS011;15002;52.028;5.670;2023-02-23T17:10:23;23.70;;;5.80;;
27558;SDS011;15002;52.028;5.670;2023-02-23T17:12:59;32.20;;;4.85;;
27558;SDS011;15002;52.028;5.670;2023-02-23T17:15:28;26.95;;;4.90;;
27558;SDS011;15002;52.028;5.670;2023-02-23T17:17:57;25.40;;;4.53;;
27558;SDS011;15002;52.028;5.670;2023-02-23T17:20:23;28.33;;;5.50;;
27558;SDS011;15002;52.028;5.670;2023-02-23T17:22:53;18.30;;;4.05;;
27558;SDS011;15002;52.028;5.670;2023-02-23T17:25:21;26.63;;;5.15;;
27558;SDS011;15002;52.028;5.670;2023-02-23T17:27:48;23.67;;;4.32;;
27558;SDS011;15002;52.028;5.670;2023-02-23T17:30:15;24.75;;;5.32;;